sensor_id;sensor_type;location;lat;lon;timestamp;P1;durP1;ratioP1;P2;durP2;ratioP2
9661;SDS011;24982;52.344;12.990;2023-06-24T00:02:48;20.10;;;18.00;;
9661;SDS011;24982;52.344;12.990;2023-06-24T00:05:51;20.73;;;18.50;;
9661;SDS011;24982;52.344;12.990;2023-06-24T00:08:53;18.40;;;16.70;;
9661;SDS011;24982;52.344;12.990;2023-06-24T00:12:01;22.00;;;18.77;;
9661;SDS011;24982;52.344;12.990;2023-06-24T00:15:04;20.48;;;18.27;;
9661;SDS011;24982;52.344;12.990;2023-06-24T00:18:08;20.42;;;18.42;;
9661;SDS011;24982;52.344;12.990;2023-06-24T00:21:10;20.35;;;18.17;;
9661;SDS011;24982;52.344;12.990;2023-06-24T00:24:12;21.35;;;19.35;;
9661;SDS011;24982;52.344;12.990;2023-06-24T00:27:15;20.55;;;16.98;;
9661;SDS011;24982;52.344;12.990;2023-06-24T00:30:17;19.48;;;17.48;;
9661;SDS011;24982;52.344;12.990;2023-06-24T00:33:19;20.13;;;18.15;;
9661;SDS011;24982;52.344;12.990;2023-06-24T00:36:21;20.67;;;18.30;;
9661;SDS011;24982;52.344;12.990;2023-06-24T00:39:23;20.17;;;18.17;;
9661;SDS011;24982;52.344;12.990;2023-06-24T00:42:27;20.58;;;18.40;;
9661;SDS011;24982;52.344;12.990;2023-06-24T00:45:29;18.00;;;16.25;;
9661;SDS011;24982;52.344;12.990;2023-06-24T00:48:31;17.95;;;16.10;;
9661;SDS011;24982;52.344;12.990;2023-06-24T00:51:33;19.80;;;16.98;;
9661;SDS011;24982;52.344;12.990;2023-06-24T00:54:36;17.77;;;15.98;;
9661;SDS011;24982;52.344;12.990;2023-06-24T00:57:39;18.83;;;16.92;;
9661;SDS011;24982;52.344;12.990;2023-06-24T01:00:42;18.42;;;16.52;;
9661;SDS011;24982;52.344;12.990;2023-06-24T01:03:47;16.75;;;15.15;;
9661;SDS011;24982;52.344;12.990;2023-06-24T01:06:49;18.00;;;15.77;;
9661;SDS011;24982;52.344;12.990;2023-06-24T01:09:51;16.90;;;14.57;;
9661;SDS011;24982;52.344;12.990;2023-06-24T01:12:55;14.43;;;13.05;;
9661;SDS011;24982;52.344;12.990;2023-06-24T01:15:57;16.23;;;14.45;;
9661;SDS011;24982;52.344;12.990;2023-06-24T01:19:05;17.08;;;13.93;;
9661;SDS011;24982;52.344;12.990;2023-06-24T01:25:59;13.77;;;12.38;;
9661;SDS011;24982;52.344;12.990;2023-06-24T01:29:49;14.10;;;12.70;;
9661;SDS011;24982;52.344;12.990;2023-06-24T01:33:04;13.88;;;12.52;;
9661;SDS011;24982;52.344;12.990;2023-06-24T01:36:11;12.30;;;11.20;;
9661;SDS011;24982;52.344;12.990;2023-06-24T01:39:16;12.98;;;11.70;;
9661;SDS011;24982;52.344;12.990;2023-06-24T01:42:21;13.02;;;11.80;;
9661;SDS011;24982;52.344;12.990;2023-06-24T01:45:24;12.43;;;11.20;;
9661;SDS011;24982;52.344;12.990;2023-06-24T01:48:30;11.77;;;10.77;;
9661;SDS011;24982;52.344;12.990;2023-06-24T01:51:36;13.30;;;12.00;;
9661;SDS011;24982;52.344;12.990;2023-06-24T01:54:41;12.10;;;10.90;;
9661;SDS011;24982;52.344;12.990;2023-06-24T01:57:47;13.50;;;10.68;;
9661;SDS011;24982;52.344;12.990;2023-06-24T02:00:51;11.52;;;10.40;;
9661;SDS011;24982;52.344;12.990;2023-06-24T02:03:57;12.52;;;11.13;;
9661;SDS011;24982;52.344;12.990;2023-06-24T02:07:01;11.77;;;10.50;;
9661;SDS011;24982;52.344;12.990;2023-06-24T02:10:05;10.80;;;9.82;;
9661;SDS011;24982;52.344;12.990;2023-06-24T02:13:09;14.77;;;11.00;;
9661;SDS011;24982;52.344;12.990;2023-06-24T02:16:13;11.45;;;10.23;;
9661;SDS011;24982;52.344;12.990;2023-06-24T02:19:17;12.00;;;10.27;;
9661;SDS011;24982;52.344;12.990;2023-06-24T02:22:20;12.23;;;10.32;;
9661;SDS011;24982;52.344;12.990;2023-06-24T02:25:26;11.85;;;10.05;;
9661;SDS011;24982;52.344;12.990;2023-06-24T02:28:28;12.07;;;10.75;;
9661;SDS011;24982;52.344;12.990;2023-06-24T02:31:31;13.13;;;10.43;;
9661;SDS011;24982;52.344;12.990;2023-06-24T02:34:34;13.45;;;11.10;;
9661;SDS011;24982;52.344;12.990;2023-06-24T02:37:37;14.18;;;10.90;;
9661;SDS011;24982;52.344;12.990;2023-06-24T02:40:39;11.75;;;10.65;;
9661;SDS011;24982;52.344;12.990;2023-06-24T02:43:44;11.88;;;10.77;;
9661;SDS011;24982;52.344;12.990;2023-06-24T02:46:46;12.40;;;11.07;;
9661;SDS011;24982;52.344;12.990;2023-06-24T02:49:51;10.95;;;9.85;;
9661;SDS011;24982;52.344;12.990;2023-06-24T02:52:56;12.50;;;11.20;;
9661;SDS011;24982;52.344;12.990;2023-06-24T02:56:05;11.18;;;9.85;;
9661;SDS011;24982;52.344;12.990;2023-06-24T02:59:10;11.73;;;10.57;;
9661;SDS011;24982;52.344;12.990;2023-06-24T03:02:13;12.75;;;9.93;;
9661;SDS011;24982;52.344;12.990;2023-06-24T03:05:18;12.43;;;9.63;;
9661;SDS011;24982;52.344;12.990;2023-06-24T03:08:23;11.25;;;10.00;;
9661;SDS011;24982;52.344;12.990;2023-06-24T03:11:26;12.10;;;10.90;;
9661;SDS011;24982;52.344;12.990;2023-06-24T03:14:30;11.60;;;10.43;;
9661;SDS011;24982;52.344;12.990;2023-06-24T03:17:32;12.13;;;11.00;;
9661;SDS011;24982;52.344;12.990;2023-06-24T03:20:36;12.15;;;10.93;;
9661;SDS011;24982;52.344;12.990;2023-06-24T03:23:43;12.20;;;10.90;;
9661;SDS011;24982;52.344;12.990;2023-06-24T03:26:47;11.52;;;10.18;;
9661;SDS011;24982;52.344;12.990;2023-06-24T03:29:56;12.40;;;10.95;;
9661;SDS011;24982;52.344;12.990;2023-06-24T03:32:59;12.73;;;11.43;;
9661;SDS011;24982;52.344;12.990;2023-06-24T03:36:02;12.60;;;11.10;;
9661;SDS011;24982;52.344;12.990;2023-06-24T03:39:07;11.85;;;10.63;;
9661;SDS011;24982;52.344;12.990;2023-06-24T03:42:10;13.13;;;11.63;;
9661;SDS011;24982;52.344;12.990;2023-06-24T03:45:12;13.18;;;11.82;;
9661;SDS011;24982;52.344;12.990;2023-06-24T03:48:14;13.23;;;11.32;;
9661;SDS011;24982;52.344;12.990;2023-06-24T03:51:17;13.80;;;11.93;;
9661;SDS011;24982;52.344;12.990;2023-06-24T03:54:20;13.90;;;12.48;;
9661;SDS011;24982;52.344;12.990;2023-06-24T03:57:22;14.35;;;12.18;;
9661;SDS011;24982;52.344;12.990;2023-06-24T04:00:24;13.57;;;12.23;;
9661;SDS011;24982;52.344;12.990;2023-06-24T04:03:26;14.43;;;12.75;;
9661;SDS011;24982;52.344;12.990;2023-06-24T04:06:30;14.90;;;12.40;;
9661;SDS011;24982;52.344;12.990;2023-06-24T04:09:32;13.20;;;11.90;;
9661;SDS011;24982;52.344;12.990;2023-06-24T04:12:34;14.65;;;13.15;;
9661;SDS011;24982;52.344;12.990;2023-06-24T04:15:36;15.10;;;13.50;;
9661;SDS011;24982;52.344;12.990;2023-06-24T04:18:39;14.43;;;12.77;;
9661;SDS011;24982;52.344;12.990;2023-06-24T04:21:42;13.77;;;12.48;;
9661;SDS011;24982;52.344;12.990;2023-06-24T04:24:46;15.25;;;13.00;;
9661;SDS011;24982;52.344;12.990;2023-06-24T04:27:48;15.20;;;13.55;;
9661;SDS011;24982;52.344;12.990;2023-06-24T04:30:51;15.60;;;13.82;;
9661;SDS011;24982;52.344;12.990;2023-06-24T04:33:53;16.63;;;13.68;;
9661;SDS011;24982;52.344;12.990;2023-06-24T04:36:56;15.70;;;12.88;;
9661;SDS011;24982;52.344;12.990;2023-06-24T04:39:58;13.85;;;12.50;;
9661;SDS011;24982;52.344;12.990;2023-06-24T04:43:00;15.15;;;13.65;;
9661;SDS011;24982;52.344;12.990;2023-06-24T04:46:02;16.05;;;13.82;;
9661;SDS011;24982;52.344;12.990;2023-06-24T04:49:04;15.55;;;13.38;;
9661;SDS011;24982;52.344;12.990;2023-06-24T04:52:08;14.88;;;13.38;;
9661;SDS011;24982;52.344;12.990;2023-06-24T04:55:10;14.25;;;12.95;;
9661;SDS011;24982;52.344;12.990;2023-06-24T04:58:12;14.77;;;13.13;;
9661;SDS011;24982;52.344;12.990;2023-06-24T05:01:14;14.63;;;13.13;;
9661;SDS011;24982;52.344;12.990;2023-06-24T05:04:16;16.60;;;13.88;;
9661;SDS011;24982;52.344;12.990;2023-06-24T05:07:19;14.55;;;12.95;;
9661;SDS011;24982;52.344;12.990;2023-06-24T05:10:21;15.85;;;13.30;;
9661;SDS011;24982;52.344;12.990;2023-06-24T05:13:23;15.30;;;13.70;;
9661;SDS011;24982;52.344;12.990;2023-06-24T05:16:25;14.25;;;12.85;;
9661;SDS011;24982;52.344;12.990;2023-06-24T05:19:27;15.27;;;13.15;;
9661;SDS011;24982;52.344;12.990;2023-06-24T05:22:31;15.07;;;13.43;;
9661;SDS011;24982;52.344;12.990;2023-06-24T05:25:33;16.27;;;13.65;;
9661;SDS011;24982;52.344;12.990;2023-06-24T05:28:35;14.75;;;13.25;;
9661;SDS011;24982;52.344;12.990;2023-06-24T05:31:37;15.13;;;12.55;;
9661;SDS011;24982;52.344;12.990;2023-06-24T05:34:39;15.02;;;13.43;;
9661;SDS011;24982;52.344;12.990;2023-06-24T05:37:43;13.85;;;12.45;;
9661;SDS011;24982;52.344;12.990;2023-06-24T05:40:45;13.75;;;12.45;;
9661;SDS011;24982;52.344;12.990;2023-06-24T05:43:46;14.60;;;13.20;;
9661;SDS011;24982;52.344;12.990;2023-06-24T05:46:48;15.18;;;13.65;;
9661;SDS011;24982;52.344;12.990;2023-06-24T05:49:50;14.55;;;13.15;;
9661;SDS011;24982;52.344;12.990;2023-06-24T05:52:54;13.30;;;11.68;;
9661;SDS011;24982;52.344;12.990;2023-06-24T05:55:56;13.90;;;12.50;;
9661;SDS011;24982;52.344;12.990;2023-06-24T05:58:58;15.25;;;12.80;;
9661;SDS011;24982;52.344;12.990;2023-06-24T06:02:00;16.08;;;12.57;;
9661;SDS011;24982;52.344;12.990;2023-06-24T06:05:02;13.77;;;12.35;;
9661;SDS011;24982;52.344;12.990;2023-06-24T06:08:06;15.23;;;12.02;;
9661;SDS011;24982;52.344;12.990;2023-06-24T06:11:08;14.20;;;12.80;;
9661;SDS011;24982;52.344;12.990;2023-06-24T06:14:10;14.25;;;12.68;;
9661;SDS011;24982;52.344;12.990;2023-06-24T06:17:13;13.48;;;12.15;;
9661;SDS011;24982;52.344;12.990;2023-06-24T06:20:16;13.88;;;12.57;;
9661;SDS011;24982;52.344;12.990;2023-06-24T06:23:19;14.90;;;11.90;;
9661;SDS011;24982;52.344;12.990;2023-06-24T06:26:21;13.35;;;12.05;;
9661;SDS011;24982;52.344;12.990;2023-06-24T06:29:23;14.60;;;12.95;;
9661;SDS011;24982;52.344;12.990;2023-06-24T06:32:25;14.90;;;13.40;;
9661;SDS011;24982;52.344;12.990;2023-06-24T06:35:27;17.17;;;12.68;;
9661;SDS011;24982;52.344;12.990;2023-06-24T06:38:31;15.55;;;13.95;;
9661;SDS011;24982;52.344;12.990;2023-06-24T06:41:34;13.98;;;12.45;;
9661;SDS011;24982;52.344;12.990;2023-06-24T06:44:36;12.75;;;11.55;;
9661;SDS011;24982;52.344;12.990;2023-06-24T06:47:38;12.88;;;11.57;;
9661;SDS011;24982;52.344;12.990;2023-06-24T06:50:40;12.20;;;11.00;;
9661;SDS011;24982;52.344;12.990;2023-06-24T06:53:43;13.75;;;11.43;;
9661;SDS011;24982;52.344;12.990;2023-06-24T06:56:45;12.02;;;10.85;;
9661;SDS011;24982;52.344;12.990;2023-06-24T06:59:47;13.07;;;11.55;;
9661;SDS011;24982;52.344;12.990;2023-06-24T07:02:51;12.45;;;11.15;;
9661;SDS011;24982;52.344;12.990;2023-06-24T07:05:53;12.65;;;10.93;;
9661;SDS011;24982;52.344;12.990;2023-06-24T07:08:56;11.48;;;10.32;;
9661;SDS011;24982;52.344;12.990;2023-06-24T07:11:58;12.05;;;10.73;;
9661;SDS011;24982;52.344;12.990;2023-06-24T07:15:00;14.93;;;10.98;;
9661;SDS011;24982;52.344;12.990;2023-06-24T07:18:02;14.10;;;10.35;;
9661;SDS011;24982;52.344;12.990;2023-06-24T07:21:04;11.43;;;10.15;;
9661;SDS011;24982;52.344;12.990;2023-06-24T07:24:07;10.57;;;9.60;;
9661;SDS011;24982;52.344;12.990;2023-06-24T07:27:09;14.50;;;10.30;;
9661;SDS011;24982;52.344;12.990;2023-06-24T07:30:11;11.32;;;9.77;;
9661;SDS011;24982;52.344;12.990;2023-06-24T07:33:13;10.75;;;9.65;;
9661;SDS011;24982;52.344;12.990;2023-06-24T07:36:15;9.80;;;8.65;;
9661;SDS011;24982;52.344;12.990;2023-06-24T07:39:19;10.60;;;9.40;;
9661;SDS011;24982;52.344;12.990;2023-06-24T07:42:21;9.55;;;8.65;;
9661;SDS011;24982;52.344;12.990;2023-06-24T07:45:23;9.38;;;8.50;;
9661;SDS011;24982;52.344;12.990;2023-06-24T07:48:25;10.13;;;9.20;;
9661;SDS011;24982;52.344;12.990;2023-06-24T07:51:27;10.00;;;8.27;;
9661;SDS011;24982;52.344;12.990;2023-06-24T07:54:31;10.35;;;8.65;;
9661;SDS011;24982;52.344;12.990;2023-06-24T07:57:33;8.77;;;7.97;;
9661;SDS011;24982;52.344;12.990;2023-06-24T08:00:35;8.80;;;8.00;;
9661;SDS011;24982;52.344;12.990;2023-06-24T08:03:37;9.65;;;8.75;;
9661;SDS011;24982;52.344;12.990;2023-06-24T08:06:39;9.32;;;8.43;;
9661;SDS011;24982;52.344;12.990;2023-06-24T08:09:42;9.15;;;8.20;;
9661;SDS011;24982;52.344;12.990;2023-06-24T08:12:44;8.38;;;7.57;;
9661;SDS011;24982;52.344;12.990;2023-06-24T08:15:46;9.25;;;7.85;;
9661;SDS011;24982;52.344;12.990;2023-06-24T08:18:48;6.88;;;6.38;;
9661;SDS011;24982;52.344;12.990;2023-06-24T08:21:50;8.85;;;7.78;;
9661;SDS011;24982;52.344;12.990;2023-06-24T08:24:53;7.85;;;7.13;;
9661;SDS011;24982;52.344;12.990;2023-06-24T08:27:55;7.13;;;6.32;;
9661;SDS011;24982;52.344;12.990;2023-06-24T08:30:57;7.68;;;6.97;;
9661;SDS011;24982;52.344;12.990;2023-06-24T08:33:59;16.80;;;7.00;;
9661;SDS011;24982;52.344;12.990;2023-06-24T08:37:02;7.32;;;6.47;;
9661;SDS011;24982;52.344;12.990;2023-06-24T08:40:07;6.88;;;6.10;;
9661;SDS011;24982;52.344;12.990;2023-06-24T08:43:09;11.13;;;6.40;;
9661;SDS011;24982;52.344;12.990;2023-06-24T08:46:11;6.68;;;6.00;;
9661;SDS011;24982;52.344;12.990;2023-06-24T08:49:17;6.90;;;5.90;;
9661;SDS011;24982;52.344;12.990;2023-06-24T08:52:27;5.63;;;5.13;;
9661;SDS011;24982;52.344;12.990;2023-06-24T08:55:34;5.53;;;5.03;;
9661;SDS011;24982;52.344;12.990;2023-06-24T08:58:41;6.53;;;5.82;;
9661;SDS011;24982;52.344;12.990;2023-06-24T09:01:43;5.30;;;4.90;;
9661;SDS011;24982;52.344;12.990;2023-06-24T09:04:45;5.00;;;4.70;;
9661;SDS011;24982;52.344;12.990;2023-06-24T09:07:47;6.45;;;4.95;;
9661;SDS011;24982;52.344;12.990;2023-06-24T09:10:54;5.30;;;4.80;;
9661;SDS011;24982;52.344;12.990;2023-06-24T09:13:56;5.47;;;4.97;;
9661;SDS011;24982;52.344;12.990;2023-06-24T09:16:59;5.10;;;4.65;;
9661;SDS011;24982;52.344;12.990;2023-06-24T09:20:03;8.70;;;5.57;;
9661;SDS011;24982;52.344;12.990;2023-06-24T09:23:06;6.10;;;5.28;;
9661;SDS011;24982;52.344;12.990;2023-06-24T09:26:10;5.85;;;5.25;;
9661;SDS011;24982;52.344;12.990;2023-06-24T09:29:13;5.30;;;4.90;;
9661;SDS011;24982;52.344;12.990;2023-06-24T09:32:15;5.40;;;4.90;;
9661;SDS011;24982;52.344;12.990;2023-06-24T09:35:18;8.75;;;4.82;;
9661;SDS011;24982;52.344;12.990;2023-06-24T09:38:24;5.28;;;4.47;;
9661;SDS011;24982;52.344;12.990;2023-06-24T09:41:35;5.20;;;4.65;;
9661;SDS011;24982;52.344;12.990;2023-06-24T09:44:37;5.13;;;4.45;;
9661;SDS011;24982;52.344;12.990;2023-06-24T09:47:39;4.70;;;4.35;;
9661;SDS011;24982;52.344;12.990;2023-06-24T09:50:41;4.88;;;4.47;;
9661;SDS011;24982;52.344;12.990;2023-06-24T09:53:43;4.68;;;4.30;;
9661;SDS011;24982;52.344;12.990;2023-06-24T09:56:48;5.10;;;4.63;;
9661;SDS011;24982;52.344;12.990;2023-06-24T09:59:51;6.72;;;4.95;;
9661;SDS011;24982;52.344;12.990;2023-06-24T10:02:53;5.00;;;4.60;;
9661;SDS011;24982;52.344;12.990;2023-06-24T10:05:56;4.47;;;4.18;;
9661;SDS011;24982;52.344;12.990;2023-06-24T10:08:58;4.95;;;4.45;;
9661;SDS011;24982;52.344;12.990;2023-06-24T10:12:03;5.22;;;4.43;;
9661;SDS011;24982;52.344;12.990;2023-06-24T10:15:05;4.53;;;4.20;;
9661;SDS011;24982;52.344;12.990;2023-06-24T10:21:45;4.97;;;4.53;;
9661;SDS011;24982;52.344;12.990;2023-06-24T10:24:49;5.00;;;4.60;;
9661;SDS011;24982;52.344;12.990;2023-06-24T10:27:54;4.60;;;4.20;;
9661;SDS011;24982;52.344;12.990;2023-06-24T10:30:56;5.28;;;4.78;;
9661;SDS011;24982;52.344;12.990;2023-06-24T10:33:58;5.55;;;4.70;;
9661;SDS011;24982;52.344;12.990;2023-06-24T10:37:01;5.05;;;4.60;;
9661;SDS011;24982;52.344;12.990;2023-06-24T10:40:04;5.30;;;4.80;;
9661;SDS011;24982;52.344;12.990;2023-06-24T10:43:24;4.85;;;3.70;;
9661;SDS011;24982;52.344;12.990;2023-06-24T10:46:32;7.20;;;3.85;;
9661;SDS011;24982;52.344;12.990;2023-06-24T10:49:34;4.82;;;3.97;;
9661;SDS011;24982;52.344;12.990;2023-06-24T10:52:37;12.48;;;4.50;;
9661;SDS011;24982;52.344;12.990;2023-06-24T10:55:40;4.93;;;4.50;;
9661;SDS011;24982;52.344;12.990;2023-06-24T10:58:55;4.95;;;4.45;;
9661;SDS011;24982;52.344;12.990;2023-06-24T11:01:57;5.00;;;4.60;;
9661;SDS011;24982;52.344;12.990;2023-06-24T11:05:00;5.25;;;4.28;;
9661;SDS011;24982;52.344;12.990;2023-06-24T11:08:03;5.00;;;4.47;;
9661;SDS011;24982;52.344;12.990;2023-06-24T11:11:06;5.60;;;4.57;;
9661;SDS011;24982;52.344;12.990;2023-06-24T11:14:10;5.90;;;4.07;;
9661;SDS011;24982;52.344;12.990;2023-06-24T11:17:12;7.07;;;4.57;;
9661;SDS011;24982;52.344;12.990;2023-06-24T11:20:14;4.53;;;4.15;;
9661;SDS011;24982;52.344;12.990;2023-06-24T11:23:16;6.38;;;4.40;;
9661;SDS011;24982;52.344;12.990;2023-06-24T11:26:17;6.10;;;4.38;;
9661;SDS011;24982;52.344;12.990;2023-06-24T11:29:21;5.05;;;4.30;;
9661;SDS011;24982;52.344;12.990;2023-06-24T11:32:23;5.97;;;4.28;;
9661;SDS011;24982;52.344;12.990;2023-06-24T11:35:25;4.63;;;4.00;;
9661;SDS011;24982;52.344;12.990;2023-06-24T11:38:27;5.40;;;4.30;;
9661;SDS011;24982;52.344;12.990;2023-06-24T11:41:32;5.82;;;4.40;;
9661;SDS011;24982;52.344;12.990;2023-06-24T11:44:35;6.03;;;4.38;;
9661;SDS011;24982;52.344;12.990;2023-06-24T11:47:42;6.70;;;4.20;;
9661;SDS011;24982;52.344;12.990;2023-06-24T11:50:44;7.18;;;4.38;;
9661;SDS011;24982;52.344;12.990;2023-06-24T11:53:58;5.18;;;4.78;;
9661;SDS011;24982;52.344;12.990;2023-06-24T11:57:00;4.82;;;4.30;;
9661;SDS011;24982;52.344;12.990;2023-06-24T12:00:04;4.72;;;4.35;;
9661;SDS011;24982;52.344;12.990;2023-06-24T12:03:14;4.43;;;3.83;;
9661;SDS011;24982;52.344;12.990;2023-06-24T12:06:16;4.60;;;4.20;;
9661;SDS011;24982;52.344;12.990;2023-06-24T12:09:18;4.40;;;3.88;;
9661;SDS011;24982;52.344;12.990;2023-06-24T12:12:20;5.05;;;4.05;;
9661;SDS011;24982;52.344;12.990;2023-06-24T12:15:23;4.38;;;4.07;;
9661;SDS011;24982;52.344;12.990;2023-06-24T12:18:25;4.53;;;4.22;;
9661;SDS011;24982;52.344;12.990;2023-06-24T12:21:27;5.22;;;4.10;;
9661;SDS011;24982;52.344;12.990;2023-06-24T12:24:29;4.35;;;4.03;;
9661;SDS011;24982;52.344;12.990;2023-06-24T12:27:32;4.50;;;4.20;;
9661;SDS011;24982;52.344;12.990;2023-06-24T12:30:36;4.80;;;4.28;;
9661;SDS011;24982;52.344;12.990;2023-06-24T12:33:38;5.25;;;3.97;;
9661;SDS011;24982;52.344;12.990;2023-06-24T12:36:39;6.43;;;4.65;;
9661;SDS011;24982;52.344;12.990;2023-06-24T12:39:42;4.88;;;4.22;;
9661;SDS011;24982;52.344;12.990;2023-06-24T12:42:44;4.65;;;4.32;;
9661;SDS011;24982;52.344;12.990;2023-06-24T12:45:47;4.50;;;4.20;;
9661;SDS011;24982;52.344;12.990;2023-06-24T12:48:51;4.00;;;3.80;;
9661;SDS011;24982;52.344;12.990;2023-06-24T12:51:53;5.20;;;4.07;;
9661;SDS011;24982;52.344;12.990;2023-06-24T12:54:55;4.53;;;4.07;;
9661;SDS011;24982;52.344;12.990;2023-06-24T12:57:57;6.57;;;4.45;;
9661;SDS011;24982;52.344;12.990;2023-06-24T13:01:01;4.82;;;4.32;;
9661;SDS011;24982;52.344;12.990;2023-06-24T13:04:03;4.97;;;4.57;;
9661;SDS011;24982;52.344;12.990;2023-06-24T13:07:05;4.68;;;4.38;;
9661;SDS011;24982;52.344;12.990;2023-06-24T13:10:09;4.78;;;4.20;;
9661;SDS011;24982;52.344;12.990;2023-06-24T13:13:12;4.03;;;3.72;;
9661;SDS011;24982;52.344;12.990;2023-06-24T13:16:17;4.53;;;4.13;;
9661;SDS011;24982;52.344;12.990;2023-06-24T13:19:19;4.43;;;4.05;;
9661;SDS011;24982;52.344;12.990;2023-06-24T13:22:21;4.25;;;3.97;;
9661;SDS011;24982;52.344;12.990;2023-06-24T13:25:23;4.57;;;4.13;;
9661;SDS011;24982;52.344;12.990;2023-06-24T13:28:25;4.95;;;4.30;;
9661;SDS011;24982;52.344;12.990;2023-06-24T13:31:28;4.25;;;3.92;;
9661;SDS011;24982;52.344;12.990;2023-06-24T13:34:30;5.38;;;4.45;;
9661;SDS011;24982;52.344;12.990;2023-06-24T13:37:32;3.90;;;3.70;;
9661;SDS011;24982;52.344;12.990;2023-06-24T13:40:34;5.38;;;4.30;;
9661;SDS011;24982;52.344;12.990;2023-06-24T13:43:36;4.90;;;4.15;;
9661;SDS011;24982;52.344;12.990;2023-06-24T13:46:39;4.72;;;4.30;;
9661;SDS011;24982;52.344;12.990;2023-06-24T13:49:41;5.18;;;3.78;;
9661;SDS011;24982;52.344;12.990;2023-06-24T13:52:43;7.50;;;4.40;;
9661;SDS011;24982;52.344;12.990;2023-06-24T13:55:45;4.63;;;4.22;;
9661;SDS011;24982;52.344;12.990;2023-06-24T13:58:47;4.53;;;4.10;;
9661;SDS011;24982;52.344;12.990;2023-06-24T14:01:51;4.45;;;4.15;;
9661;SDS011;24982;52.344;12.990;2023-06-24T14:04:53;5.15;;;4.65;;
9661;SDS011;24982;52.344;12.990;2023-06-24T14:07:55;4.50;;;3.90;;
9661;SDS011;24982;52.344;12.990;2023-06-24T14:10:57;4.93;;;4.47;;
9661;SDS011;24982;52.344;12.990;2023-06-24T14:13:59;4.47;;;4.15;;
9661;SDS011;24982;52.344;12.990;2023-06-24T14:17:03;6.22;;;4.22;;
9661;SDS011;24982;52.344;12.990;2023-06-24T14:20:09;4.82;;;4.53;;
9661;SDS011;24982;52.344;12.990;2023-06-24T14:23:11;4.95;;;4.40;;
9661;SDS011;24982;52.344;12.990;2023-06-24T14:26:14;4.25;;;3.95;;
9661;SDS011;24982;52.344;12.990;2023-06-24T14:29:16;4.53;;;4.07;;
9661;SDS011;24982;52.344;12.990;2023-06-24T14:32:19;4.93;;;4.43;;
9661;SDS011;24982;52.344;12.990;2023-06-24T14:35:21;4.68;;;4.28;;
9661;SDS011;24982;52.344;12.990;2023-06-24T14:38:23;5.80;;;4.32;;
9661;SDS011;24982;52.344;12.990;2023-06-24T14:41:25;5.50;;;4.20;;
9661;SDS011;24982;52.344;12.990;2023-06-24T14:44:27;4.47;;;4.07;;
9661;SDS011;24982;52.344;12.990;2023-06-24T14:47:30;4.30;;;3.90;;
9661;SDS011;24982;52.344;12.990;2023-06-24T14:50:33;4.78;;;4.38;;
9661;SDS011;24982;52.344;12.990;2023-06-24T14:53:35;4.55;;;4.18;;
9661;SDS011;24982;52.344;12.990;2023-06-24T14:56:37;5.43;;;4.25;;
9661;SDS011;24982;52.344;12.990;2023-06-24T14:59:38;4.22;;;3.83;;
9661;SDS011;24982;52.344;12.990;2023-06-24T15:02:42;4.45;;;3.65;;
9661;SDS011;24982;52.344;12.990;2023-06-24T15:05:44;4.95;;;4.38;;
9661;SDS011;24982;52.344;12.990;2023-06-24T15:08:46;4.35;;;4.00;;
9661;SDS011;24982;52.344;12.990;2023-06-24T15:11:48;4.63;;;4.25;;
9661;SDS011;24982;52.344;12.990;2023-06-24T15:14:50;5.38;;;4.30;;
9661;SDS011;24982;52.344;12.990;2023-06-24T15:17:53;4.28;;;3.88;;
9661;SDS011;24982;52.344;12.990;2023-06-24T15:20:55;4.47;;;4.07;;
9661;SDS011;24982;52.344;12.990;2023-06-24T15:23:57;7.93;;;4.00;;
9661;SDS011;24982;52.344;12.990;2023-06-24T15:26:59;4.45;;;4.07;;
9661;SDS011;24982;52.344;12.990;2023-06-24T15:30:01;6.72;;;4.30;;
9661;SDS011;24982;52.344;12.990;2023-06-24T15:33:05;4.85;;;4.03;;
9661;SDS011;24982;52.344;12.990;2023-06-24T15:36:07;4.45;;;4.05;;
9661;SDS011;24982;52.344;12.990;2023-06-24T15:39:09;4.25;;;3.95;;
9661;SDS011;24982;52.344;12.990;2023-06-24T15:42:11;4.40;;;4.00;;
9661;SDS011;24982;52.344;12.990;2023-06-24T15:45:12;3.92;;;3.72;;
9661;SDS011;24982;52.344;12.990;2023-06-24T15:48:16;4.20;;;3.90;;
9661;SDS011;24982;52.344;12.990;2023-06-24T15:51:18;4.50;;;4.10;;
9661;SDS011;24982;52.344;12.990;2023-06-24T15:54:20;5.15;;;4.65;;
9661;SDS011;24982;52.344;12.990;2023-06-24T15:57:22;4.88;;;4.15;;
9661;SDS011;24982;52.344;12.990;2023-06-24T16:00:24;4.25;;;3.95;;
9661;SDS011;24982;52.344;12.990;2023-06-24T16:03:27;3.88;;;3.63;;
9661;SDS011;24982;52.344;12.990;2023-06-24T16:06:29;7.18;;;5.18;;
9661;SDS011;24982;52.344;12.990;2023-06-24T16:09:31;9.35;;;8.45;;
9661;SDS011;24982;52.344;12.990;2023-06-24T16:12:33;4.88;;;4.38;;
9661;SDS011;24982;52.344;12.990;2023-06-24T16:15:35;5.00;;;4.28;;
9661;SDS011;24982;52.344;12.990;2023-06-24T16:18:38;6.78;;;5.90;;
9661;SDS011;24982;52.344;12.990;2023-06-24T16:21:40;5.28;;;4.55;;
9661;SDS011;24982;52.344;12.990;2023-06-24T16:24:42;4.65;;;4.25;;
9661;SDS011;24982;52.344;12.990;2023-06-24T16:27:45;5.03;;;4.20;;
9661;SDS011;24982;52.344;12.990;2023-06-24T16:30:47;4.85;;;4.30;;
9661;SDS011;24982;52.344;12.990;2023-06-24T16:33:50;5.25;;;4.00;;
9661;SDS011;24982;52.344;12.990;2023-06-24T16:36:52;5.97;;;4.40;;
9661;SDS011;24982;52.344;12.990;2023-06-24T16:39:54;5.75;;;4.30;;
9661;SDS011;24982;52.344;12.990;2023-06-24T16:42:56;4.25;;;3.95;;
9661;SDS011;24982;52.344;12.990;2023-06-24T16:45:58;4.35;;;4.00;;
9661;SDS011;24982;52.344;12.990;2023-06-24T16:49:01;4.63;;;4.30;;
9661;SDS011;24982;52.344;12.990;2023-06-24T16:52:07;5.78;;;4.40;;
9661;SDS011;24982;52.344;12.990;2023-06-24T16:55:08;3.90;;;3.60;;
9661;SDS011;24982;52.344;12.990;2023-06-24T16:58:10;4.50;;;4.20;;
9661;SDS011;24982;52.344;12.990;2023-06-24T17:01:12;4.40;;;4.10;;
9661;SDS011;24982;52.344;12.990;2023-06-24T17:04:16;5.03;;;4.28;;
9661;SDS011;24982;52.344;12.990;2023-06-24T17:07:18;4.40;;;4.10;;
9661;SDS011;24982;52.344;12.990;2023-06-24T17:10:20;4.28;;;3.97;;
9661;SDS011;24982;52.344;12.990;2023-06-24T17:13:22;4.72;;;4.30;;
9661;SDS011;24982;52.344;12.990;2023-06-24T17:16:24;8.77;;;4.15;;
9661;SDS011;24982;52.344;12.990;2023-06-24T17:19:27;5.32;;;4.18;;
9661;SDS011;24982;52.344;12.990;2023-06-24T17:22:29;5.05;;;3.75;;
9661;SDS011;24982;52.344;12.990;2023-06-24T17:25:31;4.43;;;4.13;;
9661;SDS011;24982;52.344;12.990;2023-06-24T17:28:33;7.55;;;3.88;;
9661;SDS011;24982;52.344;12.990;2023-06-24T17:31:35;4.43;;;4.13;;
9661;SDS011;24982;52.344;12.990;2023-06-24T17:34:38;4.65;;;4.20;;
9661;SDS011;24982;52.344;12.990;2023-06-24T17:37:40;4.32;;;4.03;;
9661;SDS011;24982;52.344;12.990;2023-06-24T17:40:42;4.55;;;4.18;;
9661;SDS011;24982;52.344;12.990;2023-06-24T17:43:44;6.18;;;4.10;;
9661;SDS011;24982;52.344;12.990;2023-06-24T17:46:46;4.15;;;3.95;;
9661;SDS011;24982;52.344;12.990;2023-06-24T17:49:49;4.00;;;3.70;;
9661;SDS011;24982;52.344;12.990;2023-06-24T17:52:51;4.20;;;3.90;;
9661;SDS011;24982;52.344;12.990;2023-06-24T17:55:53;4.53;;;4.22;;
9661;SDS011;24982;52.344;12.990;2023-06-24T17:58:55;3.78;;;3.58;;
9661;SDS011;24982;52.344;12.990;2023-06-24T18:01:57;4.22;;;3.90;;
9661;SDS011;24982;52.344;12.990;2023-06-24T18:05:01;5.15;;;4.72;;
9661;SDS011;24982;52.344;12.990;2023-06-24T18:08:03;4.88;;;4.35;;
9661;SDS011;24982;52.344;12.990;2023-06-24T18:11:05;5.00;;;4.50;;
9661;SDS011;24982;52.344;12.990;2023-06-24T18:14:07;4.68;;;4.32;;
9661;SDS011;24982;52.344;12.990;2023-06-24T18:17:09;5.68;;;4.85;;